Time;durP1;ratioP1;P1;durP2;ratioP2;P2;SDS_P1;SDS_P2;PMS_P1;PMS_P2;Temp;Humidity;BMP_temperature;BMP_pressure;BME280_temperature;BME280_humidity;BME280_pressure;Samples;Min_cycle;Max_cycle;Signal;HPM_P1;HPM_P2
2022/05/01 00:01:02;;;;;;;20.73;13.52;;;11.80;66.10;;;;;;5108067;28;20050;-61
2022/05/01 00:03:31;;;;;;;21.52;14.18;;;11.80;66.20;;;;;;5108087;28;20493;-61
2022/05/01 00:06:00;;;;;;;20.42;13.88;;;11.80;66.20;;;;;;5100911;28;20055;-61
2022/05/01 00:08:27;;;;;;;21.80;13.32;;;11.80;66.20;;;;;;5099474;28;20012;-62
2022/05/01 00:10:53;;;;;;;16.58;11.48;;;11.80;66.10;;;;;;5096195;28;20058;-60
2022/05/01 00:13:21;;;;;;;19.90;13.38;;;11.80;66.30;;;;;;5091538;28;20020;-60
2022/05/01 00:15:46;;;;;;;18.48;13.48;;;11.80;66.20;;;;;;5104744;28;20027;-60
2022/05/01 00:18:12;;;;;;;15.15;12.35;;;11.70;65.90;;;;;;5103217;28;20035;-61
2022/05/01 00:20:38;;;;;;;18.98;11.90;;;11.70;65.90;;;;;;5107612;28;20060;-61
2022/05/01 00:23:04;;;;;;;14.32;11.38;;;11.70;66.10;;;;;;5101430;28;20028;-61
2022/05/01 00:25:30;;;;;;;17.10;11.95;;;11.70;66.20;;;;;;5105178;28;20114;-60
2022/05/01 00:27:56;;;;;;;15.98;12.20;;;11.70;66.50;;;;;;5100627;28;20559;-61
2022/05/01 00:30:21;;;;;;;16.40;11.93;;;11.70;66.40;;;;;;5104313;28;20035;-61
2022/05/01 00:38:15;;;;;;;15.93;11.77;;;11.50;66.10;;;;;;5089209;28;20108;-61
2022/05/01 00:40:41;;;;;;;15.75;11.68;;;11.50;66.10;;;;;;5110208;28;20019;-61
2022/05/01 00:43:06;;;;;;;17.25;12.57;;;11.50;66.10;;;;;;5106316;28;20502;-60
2022/05/01 00:45:33;;;;;;;19.05;11.88;;;11.40;66.30;;;;;;5102848;28;20035;-62
2022/05/01 00:47:59;;;;;;;21.00;14.85;;;11.40;66.40;;;;;;5112055;28;20035;-61
2022/05/01 00:50:25;;;;;;;20.65;15.30;;;11.30;66.50;;;;;;5105544;28;20088;-61
2022/05/01 00:52:52;;;;;;;20.00;15.23;;;11.30;66.50;;;;;;5099671;28;20021;-60
2022/05/01 00:55:18;;;;;;;23.05;15.00;;;11.20;66.40;;;;;;5100656;28;20459;-60
2022/05/01 00:57:46;;;;;;;20.73;14.45;;;11.20;66.60;;;;;;5100838;28;20058;-61
2022/05/01 01:00:12;;;;;;;20.45;14.88;;;11.10;66.80;;;;;;5100251;28;20467;-60
2022/05/01 01:02:37;;;;;;;21.50;14.45;;;11.00;66.50;;;;;;5103376;28;20044;-61
2022/05/01 01:05:05;;;;;;;19.05;13.45;;;11.00;66.60;;;;;;5094728;28;20034;-60
2022/05/01 01:07:31;;;;;;;17.45;12.85;;;11.00;66.70;;;;;;5100199;28;20398;-61
2022/05/01 01:09:56;;;;;;;20.25;14.50;;;11.00;66.80;;;;;;5105756;28;20054;-60
2022/05/01 01:15:11;;;;;;;20.75;14.63;;;10.80;66.90;;;;;;5100401;28;20156;-61
2022/05/01 01:17:41;;;;;;;17.98;13.52;;;10.80;67.30;;;;;;5096883;28;20051;-60
2022/05/01 01:20:18;;;;;;;24.67;15.23;;;10.70;66.80;;;;;;5093898;28;20036;-60
2022/05/01 01:22:48;;;;;;;20.35;14.50;;;10.70;67.80;;;;;;5107201;28;20031;-60
2022/05/01 01:25:17;;;;;;;21.27;14.57;;;10.60;67.20;;;;;;5107307;28;20054;-60
2022/05/01 01:27:43;;;;;;;23.80;15.63;;;10.60;67.40;;;;;;5107440;28;20024;-61
2022/05/01 01:32:54;;;;;;;19.25;14.38;;;10.50;67.80;;;;;;5109450;28;20043;-61
2022/05/01 01:35:23;;;;;;;22.25;14.90;;;10.50;67.90;;;;;;5108092;28;20055;-60
2022/05/01 01:37:54;;;;;;;21.90;15.73;;;10.60;68.20;;;;;;5095605;28;20020;-60
2022/05/01 01:40:45;;;;;;;21.17;15.50;;;10.50;68.50;;;;;;5112781;28;20028;-61
2022/05/01 01:43:12;;;;;;;21.42;14.65;;;10.50;68.80;;;;;;5101645;28;20052;-61
2022/05/01 01:45:38;;;;;;;24.02;15.85;;;10.50;68.40;;;;;;5106367;28;20577;-60
2022/05/01 01:48:11;;;;;;;21.77;15.00;;;10.50;68.50;;;;;;5106737;28;20042;-61
2022/05/01 01:50:37;;;;;;;19.58;15.00;;;10.50;69.00;;;;;;5102350;28;20367;-60
2022/05/01 01:53:02;;;;;;;21.67;14.95;;;10.60;68.60;;;;;;5100211;28;20048;-60
2022/05/01 01:55:33;;;;;;;21.80;14.85;;;10.60;68.60;;;;;;5101948;28;20035;-60
2022/05/01 01:58:00;;;;;;;20.60;14.40;;;10.50;68.70;;;;;;5102533;28;20442;-61
2022/05/01 02:00:27;;;;;;;19.63;13.25;;;10.50;68.60;;;;;;5105071;28;20020;-60
2022/05/01 02:03:00;;;;;;;21.58;14.55;;;10.50;68.60;;;;;;5100580;28;20394;-61
2022/05/01 02:05:27;;;;;;;21.73;14.50;;;10.50;68.80;;;;;;5104168;28;20043;-60
2022/05/01 02:07:53;;;;;;;24.73;15.30;;;10.50;68.40;;;;;;5103679;28;20044;-61
2022/05/01 02:10:19;;;;;;;23.20;16.13;;;10.50;68.40;;;;;;5102322;28;20139;-61
2022/05/01 02:12:46;;;;;;;21.02;14.60;;;10.50;68.40;;;;;;5099721;28;20031;-60
2022/05/01 02:15:11;;;;;;;19.77;13.52;;;10.40;68.30;;;;;;5103228;28;20016;-60
2022/05/01 02:17:40;;;;;;;20.98;15.55;;;10.40;68.30;;;;;;5100347;28;20038;-61
2022/05/01 02:20:07;;;;;;;20.67;14.68;;;10.40;68.30;;;;;;5107775;28;20113;-60
2022/05/01 02:22:33;;;;;;;19.15;14.25;;;10.40;68.50;;;;;;5110484;28;20032;-60
2022/05/01 02:24:58;;;;;;;21.38;14.10;;;10.40;68.50;;;;;;5102242;28;20031;-61
2022/05/01 02:27:24;;;;;;;23.80;14.38;;;10.40;68.50;;;;;;5097586;28;20025;-61
2022/05/01 02:29:49;;;;;;;21.65;14.70;;;10.30;68.40;;;;;;5103261;28;20020;-61
2022/05/01 02:32:16;;;;;;;18.15;13.30;;;10.30;68.30;;;;;;5098448;28;20028;-60
2022/05/01 02:34:41;;;;;;;18.98;13.60;;;10.20;68.20;;;;;;5097822;28;20059;-60
2022/05/01 02:37:07;;;;;;;19.65;13.70;;;10.20;68.40;;;;;;5101907;28;20048;-60
2022/05/01 02:39:33;;;;;;;19.13;13.55;;;10.20;68.50;;;;;;5101770;28;20076;-62
2022/05/01 02:41:59;;;;;;;21.85;13.82;;;10.10;69.10;;;;;;5104767;28;20027;-61
2022/05/01 02:44:25;;;;;;;20.90;13.70;;;10.10;68.40;;;;;;5110491;28;20020;-61
2022/05/01 02:46:51;;;;;;;18.55;12.98;;;10.10;68.40;;;;;;5103192;28;20020;-60
2022/05/01 02:49:16;;;;;;;16.08;11.93;;;10.00;68.30;;;;;;5110028;28;20052;-60
2022/05/01 02:51:42;;;;;;;18.23;12.18;;;10.00;68.20;;;;;;5099329;28;20032;-61
2022/05/01 02:54:08;;;;;;;20.88;12.38;;;10.00;68.10;;;;;;5112403;28;20099;-60
2022/05/01 02:56:34;;;;;;;17.67;12.70;;;10.00;68.10;;;;;;5106912;28;20032;-60
2022/05/01 02:59:00;;;;;;;16.85;12.05;;;9.90;68.00;;;;;;5097369;28;20031;-61
2022/05/01 03:01:26;;;;;;;17.27;12.43;;;9.90;68.00;;;;;;5101669;28;20024;-61
2022/05/01 03:03:52;;;;;;;21.20;13.70;;;9.90;68.00;;;;;;5104465;28;20038;-60
2022/05/01 03:06:17;;;;;;;22.63;13.10;;;9.80;68.00;;;;;;5098256;28;20048;-61
2022/05/01 03:08:44;;;;;;;20.80;13.13;;;9.80;68.10;;;;;;5098864;28;20020;-60
2022/05/01 03:11:10;;;;;;;16.77;12.95;;;9.80;68.20;;;;;;5101253;28;20027;-60
2022/05/01 03:13:36;;;;;;;18.00;12.70;;;9.80;68.30;;;;;;5099845;28;20019;-61
2022/05/01 03:16:02;;;;;;;19.40;12.77;;;9.80;68.50;;;;;;5110559;28;20023;-61
2022/05/01 03:24:04;;;;;;;19.67;12.25;;;9.80;68.70;;;;;;5106807;28;20031;-61
2022/05/01 03:26:30;;;;;;;19.50;12.98;;;9.80;68.70;;;;;;5100800;28;20024;-61
2022/05/01 03:28:55;;;;;;;18.27;12.93;;;9.90;69.00;;;;;;5100619;28;20032;-61
2022/05/01 03:31:21;;;;;;;15.68;12.30;;;9.90;69.00;;;;;;5100422;28;20027;-60
2022/05/01 03:33:47;;;;;;;17.05;12.23;;;9.90;69.10;;;;;;5097039;28;20146;-60
2022/05/01 03:36:14;;;;;;;16.58;12.60;;;9.90;69.00;;;;;;5096682;28;20032;-61
2022/05/01 03:38:41;;;;;;;17.45;12.63;;;10.00;69.10;;;;;;5101601;28;20120;-60
2022/05/01 03:41:14;;;;;;;17.98;12.32;;;10.00;69.20;;;;;;5100390;28;20535;-61
2022/05/01 03:43:40;;;;;;;19.55;12.95;;;10.00;69.30;;;;;;5093500;28;20028;-60
2022/05/01 03:46:06;;;;;;;22.13;13.60;;;10.00;69.10;;;;;;5102178;28;20081;-60
2022/05/01 03:48:32;;;;;;;17.33;12.32;;;10.10;69.20;;;;;;5101186;28;20048;-60
2022/05/01 03:50:59;;;;;;;16.92;12.25;;;10.10;69.20;;;;;;5099962;28;20029;-61
2022/05/01 03:53:25;;;;;;;20.60;13.63;;;10.10;69.10;;;;;;5101574;28;20023;-61
2022/05/01 03:55:51;;;;;;;22.55;13.43;;;10.10;69.00;;;;;;5095831;28;20032;-61
2022/05/01 03:58:18;;;;;;;20.52;14.32;;;10.20;69.10;;;;;;5099625;28;20032;-60
2022/05/01 04:00:47;;;;;;;22.02;15.63;;;10.20;69.10;;;;;;5105348;28;20016;-60
2022/05/01 04:03:16;;;;;;;22.98;13.77;;;10.20;69.20;;;;;;5097439;28;20027;-60
2022/05/01 04:05:42;;;;;;;26.42;17.33;;;10.20;69.10;;;;;;5099995;28;20013;-61
2022/05/01 04:08:09;;;;;;;27.52;17.98;;;10.30;69.20;;;;;;5091367;28;20020;-60
2022/05/01 04:10:40;;;;;;;20.27;14.30;;;10.30;69.20;;;;;;5103680;28;20028;-61
2022/05/01 04:13:06;;;;;;;19.73;14.00;;;10.30;69.30;;;;;;5104906;28;20095;-61
2022/05/01 04:15:32;;;;;;;21.80;13.75;;;10.30;69.00;;;;;;5108776;28;20035;-61
2022/05/01 04:17:58;;;;;;;21.35;14.30;;;10.30;69.20;;;;;;5104393;28;20035;-61
2022/05/01 04:20:25;;;;;;;19.13;12.90;;;10.30;69.30;;;;;;5103455;28;20011;-61
2022/05/01 04:22:51;;;;;;;19.27;13.35;;;10.40;69.30;;;;;;5096685;28;20565;-60
2022/05/01 04:25:24;;;;;;;19.40;13.85;;;10.40;69.30;;;;;;5107364;28;20525;-60
2022/05/01 04:27:52;;;;;;;20.13;14.27;;;10.40;69.50;;;;;;5100584;28;20047;-60
2022/05/01 04:30:19;;;;;;;19.80;13.80;;;10.40;69.10;;;;;;5095073;28;20271;-60
2022/05/01 04:32:53;;;;;;;19.60;14.25;;;10.50;69.30;;;;;;5107769;28;20015;-60
2022/05/01 04:35:42;;;;;;;22.55;12.88;;;10.50;69.60;;;;;;5096661;28;20383;-61
2022/05/01 04:38:14;;;;;;;20.52;13.52;;;10.50;69.90;;;;;;5098286;28;20044;-60
2022/05/01 04:40:45;;;;;;;19.90;13.68;;;10.50;69.20;;;;;;5099237;28;20037;-61
2022/05/01 04:43:13;;;;;;;18.88;13.93;;;10.50;69.30;;;;;;5099227;28;20071;-61
2022/05/01 04:45:41;;;;;;;19.35;12.85;;;10.50;69.40;;;;;;5104351;28;20086;-60
2022/05/01 04:48:09;;;;;;;17.45;12.73;;;10.50;69.50;;;;;;5099119;28;20040;-61
2022/05/01 04:50:36;;;;;;;21.70;14.13;;;10.60;69.40;;;;;;5102152;28;20065;-60
2022/05/01 04:53:03;;;;;;;17.45;12.77;;;10.60;69.50;;;;;;5100577;28;20032;-61
2022/05/01 04:55:32;;;;;;;19.60;14.57;;;10.60;69.50;;;;;;5100087;28;20420;-60
2022/05/01 04:57:58;;;;;;;19.48;13.32;;;10.70;69.70;;;;;;5102858;28;20039;-61
2022/05/01 05:00:24;;;;;;;20.48;13.73;;;10.70;69.40;;;;;;5107574;28;20028;-61
2022/05/01 05:02:51;;;;;;;21.90;13.82;;;10.70;69.40;;;;;;5108122;28;20073;-60
2022/05/01 05:05:18;;;;;;;22.50;12.65;;;10.80;69.60;;;;;;5112864;28;20150;-60
2022/05/01 05:07:44;;;;;;;14.88;11.00;;;10.80;69.60;;;;;;5111200;28;20027;-60
2022/05/01 05:10:10;;;;;;;16.33;12.00;;;10.80;69.50;;;;;;5107423;28;20031;-61
2022/05/01 05:12:37;;;;;;;16.90;12.32;;;10.80;69.40;;;;;;5111604;28;20037;-61
2022/05/01 05:15:06;;;;;;;16.63;12.45;;;10.80;69.30;;;;;;5099876;28;20080;-60
2022/05/01 05:17:33;;;;;;;17.13;13.43;;;10.90;69.40;;;;;;5107785;28;20028;-61
2022/05/01 05:19:59;;;;;;;18.05;13.38;;;10.90;69.40;;;;;;5099392;28;20031;-61
2022/05/01 05:22:25;;;;;;;17.52;12.73;;;10.90;69.50;;;;;;5114004;28;20019;-61
2022/05/01 05:24:51;;;;;;;21.05;13.93;;;11.00;69.50;;;;;;5104634;28;20016;-61
2022/05/01 05:27:20;;;;;;;22.75;14.80;;;11.00;69.50;;;;;;5105646;28;20027;-61
2022/05/01 05:29:47;;;;;;;21.30;14.55;;;11.00;69.40;;;;;;5106245;28;20024;-60
2022/05/01 05:32:12;;;;;;;21.17;15.48;;;11.10;69.50;;;;;;5110209;28;20058;-60
2022/05/01 05:34:39;;;;;;;20.17;14.55;;;11.10;69.60;;;;;;5103925;28;20027;-61
2022/05/01 05:37:05;;;;;;;19.25;14.45;;;11.10;69.60;;;;;;5102512;28;20024;-60
2022/05/01 05:39:30;;;;;;;20.63;13.95;;;11.20;69.40;;;;;;5108849;28;20040;-61
2022/05/01 05:41:56;;;;;;;17.77;12.68;;;11.30;69.50;;;;;;5103472;28;20027;-61
2022/05/01 05:44:22;;;;;;;16.85;12.85;;;11.30;69.30;;;;;;5106849;28;20055;-61
2022/05/01 05:46:47;;;;;;;17.48;13.27;;;11.40;69.50;;;;;;5107264;28;20011;-62
2022/05/01 05:49:13;;;;;;;18.02;12.77;;;11.40;69.50;;;;;;5098539;28;20051;-61
2022/05/01 05:51:39;;;;;;;17.77;12.43;;;11.50;69.70;;;;;;5111725;28;20020;-61
2022/05/01 05:54:04;;;;;;;16.48;12.85;;;11.60;69.70;;;;;;5103178;28;20028;-60
2022/05/01 05:56:30;;;;;;;17.90;12.85;;;11.70;69.70;;;;;;5110135;28;20069;-61
2022/05/01 05:58:56;;;;;;;22.67;12.93;;;11.80;69.80;;;;;;5096742;28;20028;-61
2022/05/01 06:01:22;;;;;;;18.60;13.15;;;11.80;69.50;;;;;;5097555;28;20028;-61
2022/05/01 06:03:49;;;;;;;18.50;12.85;;;11.90;69.30;;;;;;5096682;28;20043;-61
2022/05/01 06:06:15;;;;;;;19.98;13.77;;;12.00;69.30;;;;;;5100318;28;20088;-61
2022/05/01 06:08:42;;;;;;;20.35;14.32;;;12.10;69.20;;;;;;5100579;28;20032;-60
2022/05/01 06:11:08;;;;;;;19.00;13.95;;;12.10;69.10;;;;;;5100523;28;20054;-61
2022/05/01 06:13:34;;;;;;;17.30;12.07;;;12.20;69.10;;;;;;5100679;28;20028;-61
2022/05/01 06:16:00;;;;;;;16.85;12.32;;;12.30;68.90;;;;;;5097684;28;20017;-61
2022/05/01 06:18:25;;;;;;;17.88;11.98;;;12.40;68.70;;;;;;5096296;28;20391;-61
2022/05/01 06:20:51;;;;;;;20.08;12.88;;;12.40;68.50;;;;;;5102315;28;20030;-61
2022/05/01 06:23:17;;;;;;;17.83;13.07;;;12.50;68.50;;;;;;5094079;28;20016;-61
2022/05/01 06:25:43;;;;;;;18.60;12.88;;;12.60;68.40;;;;;;5100289;28;20413;-60
2022/05/01 06:28:11;;;;;;;18.50;12.77;;;12.70;68.40;;;;;;5101996;28;20027;-61
2022/05/01 06:30:48;;;;;;;19.30;11.45;;;12.70;68.30;;;;;;5098556;28;20017;-61
2022/05/01 06:33:16;;;;;;;14.73;10.90;;;12.80;68.10;;;;;;5098504;28;20065;-60
2022/05/01 06:35:47;;;;;;;16.42;11.48;;;13.00;68.80;;;;;;5101945;28;20055;-61
2022/05/01 06:38:13;;;;;;;17.63;11.43;;;13.00;67.80;;;;;;5098391;28;20036;-61
2022/05/01 06:40:38;;;;;;;16.63;12.38;;;13.20;67.70;;;;;;5101282;28;20084;-60
2022/05/01 06:43:05;;;;;;;18.13;11.85;;;13.30;67.40;;;;;;5100447;28;20040;-61
2022/05/01 06:45:31;;;;;;;17.33;11.80;;;13.40;67.20;;;;;;5103462;28;20030;-60
2022/05/01 06:47:57;;;;;;;17.38;11.38;;;13.50;66.90;;;;;;5110040;28;20059;-60
2022/05/01 06:50:23;;;;;;;18.65;12.00;;;13.60;66.50;;;;;;5060514;28;1160875;-61
2022/05/01 06:52:48;;;;;;;18.02;10.98;;;13.60;66.20;;;;;;5101487;28;20092;-61
2022/05/01 06:55:16;;;;;;;16.23;11.27;;;13.70;66.10;;;;;;5111649;28;20016;-61
2022/05/01 06:57:42;;;;;;;18.55;11.50;;;13.80;65.60;;;;;;5108222;28;20067;-61
2022/05/01 07:00:08;;;;;;;16.70;10.32;;;13.90;65.40;;;;;;5108759;28;20036;-60
2022/05/01 07:02:34;;;;;;;15.15;9.98;;;13.90;65.10;;;;;;5108628;28;20016;-61
2022/05/01 07:04:59;;;;;;;13.68;9.90;;;14.00;64.80;;;;;;5106723;28;20020;-62
2022/05/01 07:07:25;;;;;;;12.23;9.23;;;14.00;64.50;;;;;;5106338;28;20031;-61
2022/05/01 07:09:50;;;;;;;13.90;10.07;;;14.10;64.30;;;;;;5102296;28;20020;-61
2022/05/01 07:12:16;;;;;;;14.23;10.10;;;14.10;64.20;;;;;;5094996;28;20433;-61
2022/05/01 07:14:43;;;;;;;13.65;10.15;;;14.20;64.00;;;;;;5101126;28;20036;-61
2022/05/01 07:17:09;;;;;;;11.98;9.50;;;14.20;63.70;;;;;;5099988;28;20031;-61
2022/05/01 07:19:35;;;;;;;12.93;9.02;;;14.30;63.20;;;;;;5104405;28;20473;-61
2022/05/01 07:22:01;;;;;;;12.52;9.02;;;14.30;62.70;;;;;;5110756;28;20023;-61
2022/05/01 07:24:27;;;;;;;11.32;8.27;;;14.30;62.60;;;;;;5103367;28;20028;-60
2022/05/01 07:26:52;;;;;;;12.07;9.40;;;14.30;62.60;;;;;;5097456;28;20020;-61
2022/05/01 07:29:18;;;;;;;12.85;8.68;;;14.30;62.30;;;;;;5104410;28;20024;-61
2022/05/01 07:31:44;;;;;;;11.13;8.43;;;14.30;62.00;;;;;;5104308;28;20387;-61
2022/05/01 07:34:10;;;;;;;11.45;8.65;;;14.40;62.10;;;;;;5108179;28;20024;-61
2022/05/01 07:36:36;;;;;;;12.50;9.88;;;14.40;62.10;;;;;;5100330;28;20423;-61
2022/05/01 07:39:02;;;;;;;15.23;9.20;;;14.40;61.90;;;;;;5100550;28;20032;-61
2022/05/01 07:41:28;;;;;;;12.32;9.25;;;14.50;61.60;;;;;;5096148;28;20070;-60
2022/05/01 07:43:55;;;;;;;11.70;8.75;;;14.50;61.50;;;;;;5104665;28;20058;-61
2022/05/01 07:46:21;;;;;;;13.25;10.00;;;14.60;61.50;;;;;;5100662;28;20026;-61
2022/05/01 07:48:48;;;;;;;14.20;10.23;;;14.60;61.10;;;;;;5095784;28;20040;-61
2022/05/01 07:51:17;;;;;;;12.77;9.48;;;14.70;60.80;;;;;;5100868;28;20489;-62
2022/05/01 07:53:42;;;;;;;14.75;10.20;;;14.70;60.60;;;;;;5100666;28;20020;-61
2022/05/01 07:56:08;;;;;;;12.88;9.68;;;14.80;60.80;;;;;;5109712;28;20825;-61
2022/05/01 07:58:34;;;;;;;13.80;10.13;;;14.80;61.00;;;;;;5099764;28;20037;-61
2022/05/01 08:01:01;;;;;;;14.38;10.10;;;14.90;60.80;;;;;;5107806;28;20039;-61
2022/05/01 08:06:12;;;;;;;13.63;10.38;;;15.00;59.80;;;;;;5102409;28;20444;-61
2022/05/01 08:08:41;;;;;;;13.40;10.43;;;15.00;59.70;;;;;;5101243;28;20195;-60
2022/05/01 08:11:08;;;;;;;12.07;9.82;;;15.00;59.80;;;;;;5100913;28;20047;-62
2022/05/01 08:13:34;;;;;;;15.15;9.75;;;15.00;60.00;;;;;;5099552;28;20020;-61
2022/05/01 08:16:00;;;;;;;11.43;9.45;;;15.00;59.80;;;;;;5096803;28;20502;-61
2022/05/01 08:21:10;;;;;;;11.40;8.73;;;15.10;59.60;;;;;;5101614;28;20497;-61
2022/05/01 08:23:39;;;;;;;11.85;8.77;;;15.20;59.70;;;;;;5097539;28;20032;-62
2022/05/01 08:26:06;;;;;;;11.23;8.20;;;15.20;59.40;;;;;;5102661;28;20028;-61
2022/05/01 08:28:33;;;;;;;11.38;9.18;;;15.20;59.30;;;;;;5100090;28;20085;-60
2022/05/01 08:31:00;;;;;;;10.45;8.38;;;15.30;58.70;;;;;;5108037;28;20052;-62
2022/05/01 08:33:26;;;;;;;11.52;9.48;;;15.30;58.90;;;;;;5095577;28;20028;-61
2022/05/01 08:35:52;;;;;;;10.88;8.90;;;15.30;59.10;;;;;;5099900;28;20035;-61
2022/05/01 08:38:18;;;;;;;12.55;9.65;;;15.30;59.20;;;;;;5099749;28;20032;-61
2022/05/01 08:40:48;;;;;;;13.32;9.75;;;15.40;59.40;;;;;;5103935;28;20031;-61
2022/05/01 08:43:15;;;;;;;12.95;9.38;;;15.50;58.90;;;;;;5096783;28;20063;-62
2022/05/01 08:45:53;;;;;;;11.63;9.05;;;15.60;59.00;;;;;;5105199;28;20459;-60
2022/05/01 08:48:36;;;;;;;11.65;8.85;;;15.80;58.20;;;;;;5104652;28;20028;-61
2022/05/01 08:51:04;;;;;;;12.13;8.48;;;15.90;58.40;;;;;;5095179;28;20024;-61
2022/05/01 08:53:31;;;;;;;16.02;8.10;;;16.10;58.80;;;;;;5106619;28;20016;-61
2022/05/01 08:55:58;;;;;;;11.23;8.70;;;16.40;58.60;;;;;;5101229;28;20024;-62
2022/05/01 08:58:28;;;;;;;9.48;7.55;;;16.60;58.50;;;;;;5093172;28;20044;-61
2022/05/01 09:00:54;;;;;;;10.48;7.88;;;16.80;58.00;;;;;;5099759;28;20020;-62
2022/05/01 09:03:19;;;;;;;9.25;7.85;;;17.00;57.60;;;;;;5103782;28;20027;-61
2022/05/01 09:05:45;;;;;;;10.05;8.18;;;17.20;57.60;;;;;;5102205;28;20024;-61
2022/05/01 09:08:11;;;;;;;8.93;7.43;;;17.40;57.30;;;;;;5105646;28;20024;-61
2022/05/01 09:10:42;;;;;;;10.88;8.43;;;17.50;57.10;;;;;;5107439;28;20075;-62
2022/05/01 09:13:08;;;;;;;9.48;7.72;;;17.70;56.40;;;;;;5098562;28;20036;-62
2022/05/01 09:15:34;;;;;;;9.57;7.82;;;17.90;56.40;;;;;;5107250;28;20028;-61
2022/05/01 09:18:05;;;;;;;12.32;8.13;;;18.00;54.80;;;;;;5093810;28;20055;-62
2022/05/01 09:20:31;;;;;;;10.13;8.43;;;18.20;55.70;;;;;;5094984;28;20024;-63
2022/05/01 09:22:59;;;;;;;11.13;7.85;;;18.30;55.30;;;;;;5103070;28;20038;-62
2022/05/01 09:25:27;;;;;;;9.40;7.57;;;18.40;55.00;;;;;;5099438;28;20035;-62
2022/05/01 09:27:57;;;;;;;13.02;8.73;;;18.50;55.00;;;;;;5115135;28;20059;-62
2022/05/01 09:30:36;;;;;;;10.50;8.38;;;18.60;54.20;;;;;;5097010;28;20044;-62
2022/05/01 09:33:02;;;;;;;11.93;8.13;;;18.70;53.70;;;;;;5106765;28;20482;-62
2022/05/01 09:35:35;;;;;;;10.27;8.25;;;18.70;53.60;;;;;;5112196;28;20020;-62
2022/05/01 09:38:28;;;;;;;15.32;8.77;;;18.60;52.40;;;;;;5113991;28;20036;-62
2022/05/01 09:40:57;;;;;;;12.27;8.13;;;18.50;52.20;;;;;;5092418;28;20090;-61
2022/05/01 09:43:47;;;;;;;11.38;7.88;;;18.40;52.80;;;;;;5109492;28;20031;-61
2022/05/01 09:46:24;;;;;;;9.10;7.60;;;18.30;52.80;;;;;;5100370;28;20020;-61
2022/05/01 09:48:57;;;;;;;13.65;7.97;;;18.30;51.90;;;;;;5099090;28;20040;-61
2022/05/01 09:51:23;;;;;;;10.02;7.47;;;18.40;53.20;;;;;;5100007;28;20019;-61
2022/05/01 09:53:49;;;;;;;9.60;7.28;;;18.40;53.60;;;;;;5111356;28;20039;-61
2022/05/01 09:56:15;;;;;;;8.10;6.97;;;18.50;53.30;;;;;;5105993;28;20024;-61
2022/05/01 09:58:43;;;;;;;8.95;7.20;;;18.60;53.10;;;;;;5114883;28;20041;-62
2022/05/01 10:01:10;;;;;;;10.15;6.82;;;18.70;52.80;;;;;;5096192;28;20092;-62
2022/05/01 10:03:40;;;;;;;9.32;7.45;;;18.80;52.50;;;;;;5101859;28;20046;-61
2022/05/01 10:06:10;;;;;;;9.48;7.43;;;18.80;51.30;;;;;;5106464;28;20089;-61
2022/05/01 10:08:38;;;;;;;8.50;6.57;;;18.80;51.40;;;;;;5097530;28;20020;-63
2022/05/01 10:11:05;;;;;;;8.20;6.53;;;18.90;52.10;;;;;;5095105;28;20028;-63
2022/05/01 10:13:32;;;;;;;10.60;7.43;;;18.90;52.50;;;;;;5109664;28;20032;-61
2022/05/01 10:15:59;;;;;;;8.95;6.78;;;18.90;52.40;;;;;;5106187;28;20520;-61
2022/05/01 10:18:25;;;;;;;7.70;6.32;;;19.00;52.80;;;;;;5110235;28;20031;-62
2022/05/01 10:20:51;;;;;;;8.10;6.15;;;19.20;52.30;;;;;;5094792;28;20036;-60
2022/05/01 10:23:16;;;;;;;7.03;6.03;;;19.30;52.10;;;;;;5106045;28;20028;-61
2022/05/01 10:25:57;;;;;;;9.10;6.50;;;19.40;51.40;;;;;;5107653;28;20031;-61
2022/05/01 10:28:52;;;;;;;8.77;6.63;;;19.60;51.00;;;;;;5101607;28;20374;-61
2022/05/01 10:35:01;;;;;;;6.68;5.72;;;19.70;50.40;;;;;;5107200;28;20046;-62
2022/05/01 10:37:55;;;;;;;8.32;6.35;;;19.90;50.20;;;;;;5102231;28;20442;-62
2022/05/01 10:40:21;;;;;;;10.70;6.60;;;20.00;50.50;;;;;;5105656;28;20770;-61
2022/05/01 10:42:49;;;;;;;8.95;6.13;;;20.10;50.10;;;;;;5099044;28;20034;-62
2022/05/01 10:45:21;;;;;;;6.93;5.55;;;20.20;50.10;;;;;;5107751;28;20024;-62
2022/05/01 10:47:48;;;;;;;6.15;5.45;;;20.20;49.60;;;;;;5105869;28;20036;-61
2022/05/01 10:50:21;;;;;;;6.93;5.80;;;20.30;49.70;;;;;;5109749;28;20080;-62
2022/05/01 10:53:09;;;;;;;9.65;5.88;;;20.40;49.40;;;;;;5098026;28;20020;-62
2022/05/01 10:55:53;;;;;;;8.32;6.38;;;20.50;48.20;;;;;;5102515;28;20028;-62
2022/05/01 10:58:26;;;;;;;6.45;5.75;;;20.60;47.90;;;;;;5096862;28;20394;-62
2022/05/01 11:00:54;;;;;;;7.13;5.82;;;20.60;48.40;;;;;;5104741;28;20024;-62
2022/05/01 11:03:36;;;;;;;8.52;6.05;;;20.60;48.40;;;;;;5102769;28;20624;-62
2022/05/01 11:06:02;;;;;;;7.45;5.72;;;20.60;47.60;;;;;;5098034;28;20027;-62
2022/05/01 11:08:33;;;;;;;9.82;6.25;;;20.60;48.70;;;;;;5099266;28;20032;-62
2022/05/01 11:11:00;;;;;;;10.10;7.35;;;20.60;48.20;;;;;;5105061;28;20107;-62
2022/05/01 11:13:40;;;;;;;10.25;7.00;;;20.60;48.30;;;;;;5097288;28;20027;-62
2022/05/01 11:16:08;;;;;;;8.77;6.28;;;20.50;48.20;;;;;;5098784;28;20035;-62
2022/05/01 11:18:53;;;;;;;8.65;6.60;;;20.50;48.90;;;;;;5100849;28;20036;-62
2022/05/01 11:21:22;;;;;;;8.93;6.03;;;20.60;48.20;;;;;;5102791;28;20030;-62
2022/05/01 11:23:58;;;;;;;10.32;5.15;;;20.60;48.70;;;;;;5101661;28;20024;-61
2022/05/01 11:26:24;;;;;;;6.30;5.07;;;20.80;48.00;;;;;;5101339;28;20019;-61
2022/05/01 11:28:52;;;;;;;8.25;5.35;;;20.80;47.80;;;;;;5100601;28;20093;-62
2022/05/01 11:31:35;;;;;;;8.88;5.82;;;20.90;47.60;;;;;;5095983;28;20028;-62
2022/05/01 11:34:16;;;;;;;6.97;5.28;;;21.00;47.00;;;;;;5104513;28;20024;-62
2022/05/01 11:37:04;;;;;;;7.13;5.53;;;21.00;46.60;;;;;;5104733;28;20027;-62
2022/05/01 11:39:45;;;;;;;7.18;5.43;;;21.00;46.20;;;;;;5097977;28;20053;-61
2022/05/01 11:42:26;;;;;;;6.70;5.25;;;21.00;46.50;;;;;;5096172;28;20024;-61
2022/05/01 11:44:54;;;;;;;8.05;5.40;;;21.00;45.80;;;;;;5101898;28;20089;-62
2022/05/01 11:47:25;;;;;;;11.15;5.95;;;21.00;46.60;;;;;;5105989;28;20020;-61
2022/05/01 11:49:51;;;;;;;8.07;5.35;;;20.90;46.70;;;;;;5099778;28;20040;-62
2022/05/01 11:52:17;;;;;;;6.90;5.50;;;20.90;46.30;;;;;;5105595;28;20048;-64
2022/05/01 11:54:57;;;;;;;9.85;5.30;;;20.80;46.50;;;;;;5096185;28;20486;-62
2022/05/01 12:03:04;;;;;;;7.50;5.32;;;20.80;46.50;;;;;;5089553;28;20047;-62
2022/05/01 12:05:43;;;;;;;24.63;14.52;;;20.70;47.10;;;;;;5103568;28;20023;-61
2022/05/01 12:08:09;;;;;;;12.77;8.70;;;20.70;46.80;;;;;;5097445;28;20021;-61
2022/05/01 12:10:43;;;;;;;10.65;6.80;;;20.60;47.40;;;;;;5100957;28;20024;-61
2022/05/01 12:13:35;;;;;;;10.45;8.18;;;20.60;47.80;;;;;;5101769;28;20083;-61
2022/05/01 12:16:01;;;;;;;11.77;6.35;;;20.70;47.50;;;;;;5102526;28;20093;-61
2022/05/01 12:18:26;;;;;;;10.90;6.55;;;20.70;47.70;;;;;;5097294;28;20028;-61
2022/05/01 12:20:52;;;;;;;10.77;8.38;;;20.90;47.70;;;;;;5105695;28;20020;-61
2022/05/01 12:23:20;;;;;;;12.40;6.18;;;21.00;47.70;;;;;;5093713;28;20036;-61
2022/05/01 12:25:50;;;;;;;9.55;6.20;;;21.00;46.80;;;;;;5094526;28;20019;-61
2022/05/01 12:28:18;;;;;;;6.88;5.70;;;21.10;47.00;;;;;;5099570;28;20068;-62
2022/05/01 12:30:46;;;;;;;6.80;4.90;;;21.10;46.80;;;;;;5102944;28;20066;-62
2022/05/01 12:33:24;;;;;;;7.38;5.20;;;21.10;46.60;;;;;;5102802;28;20032;-62
2022/05/01 12:35:59;;;;;;;9.02;5.55;;;21.20;46.40;;;;;;5101406;28;20028;-62
2022/05/01 12:38:29;;;;;;;8.43;5.53;;;21.10;45.70;;;;;;5099365;28;20096;-61
2022/05/01 12:43:59;;;;;;;8.98;6.35;;;21.00;45.40;;;;;;5104272;28;20035;-61
2022/05/01 12:46:29;;;;;;;10.85;6.97;;;20.90;45.80;;;;;;5106629;28;20090;-62
2022/05/01 12:48:56;;;;;;;9.27;6.45;;;20.60;45.20;;;;;;5100460;28;20043;-61
2022/05/01 12:51:24;;;;;;;12.30;8.55;;;20.40;46.00;;;;;;5099647;28;20095;-61
2022/05/01 12:54:06;;;;;;;9.43;6.82;;;20.10;46.30;;;;;;5106947;28;20047;-61
2022/05/01 12:56:34;;;;;;;9.45;6.78;;;19.90;47.10;;;;;;5105058;28;20028;-61
2022/05/01 12:59:20;;;;;;;9.90;6.10;;;19.70;47.50;;;;;;5107766;28;20042;-61
2022/05/01 13:01:45;;;;;;;7.30;5.50;;;19.60;47.60;;;;;;5092000;28;20501;-61
2022/05/01 13:04:21;;;;;;;10.20;6.05;;;19.40;47.40;;;;;;5103687;28;20024;-61
2022/05/01 13:06:47;;;;;;;9.60;6.10;;;19.30;47.20;;;;;;5098081;28;20034;-61
2022/05/01 13:09:13;;;;;;;8.10;5.55;;;19.30;47.80;;;;;;5099971;28;20040;-61
2022/05/01 13:11:58;;;;;;;10.60;6.30;;;19.20;48.30;;;;;;5098696;28;20039;-61
2022/05/01 13:14:32;;;;;;;8.82;5.85;;;19.10;48.10;;;;;;5096411;28;20031;-61